KAEX

Alexandria International Airport

Alexandria, Louisiana, USA
METAR KAEX 092109Z 34008KT 10SM OVC013 06/04 A3019 RMK AO2 T00610039
Observed Flight Rules
Dec-9 @ 21:09 UTC (32 minutes ago) Marginal Visual Flight Rules
Wind Visibility Clouds
340° at 8 knots 10 miles
  • Overcast at 1,300' AGL
Temperatures Readings
Current 6°C / 43°F
Dewpoint 4°C / 39°F
Humidity 87%
Altimeter 30.19" Hg
Pressure 1022 hPa
Elevation 27
METAR KAEX 092109Z 34008KT 10SM OVC013 06/04 A3019 RMK AO2 T00610039
Observed Flight Rules
Dec-9 @ 21:09 UTC
(32 minutes ago)
MVFR
Wind Visibility
340° at 8 knots 10 miles
Clouds
  • Overcast at 1,300' AGL
Temperature Dewpoint
6°C / 43°F 4°C / 39°F
Humidity Altimeter Pressure
87% 30.19" Hg 1022 hPa